Derby Line, Vermont
Current Conditions -  °F | °C
As of 9:35 PM on Friday 28 Nov 2014 (Local Time) from KEFK Reporting Station
Light Snow Light Snow  
Wind Chill: 17°   Ceiling: 2800
Heat Index: 17°   Visibility: 5mi
Dew Point: 14°   Wind: 3mph
Humidity: 88%   Direction: 260°W
Pressure: 30.14"   Gusts: NA
Location:  45°N, 72.1°W
Report Text: KEFK 290235Z AUTO 26003KT 5SM -SN BKN028 BKN033 OVC039 M08/M10 A3014 RMK AO2 T10841100
Loading
Personal Weather Stations






























Interactive Weather Map New forecast layout! Learn more

10-Day Weather Forecast

Advertisements
Track Severe Weather on mobile